This is the latest recevied weather packets stored in our database for station/object C31FR-13. If no packets are shown the sender has not sent any weather packets the latest 10 day(s).
| Time | Temp. | Humidity | Pressure | Rain* | Wind** | Luminosity | Snow |
|---|---|---|---|---|---|---|---|
| 1788423662 | 21.11° C | 58% | 1026.8 hPa | - | - | - | - |
| 1788423362 | 21.11° C | 59% | 1026.8 hPa | - | - | - | - |
| 1788420962 | 20.56° C | 62% | 1027.2 hPa | - | - | - | - |
| 1788420663 | 20° C | 62% | 1027.3 hPa | - | - | - | - |
| 1788420062 | 20° C | 63% | 1027.4 hPa | - | - | - | - |
| 1788419162 | 19.44° C | 64% | 1027.4 hPa | - | - | - | - |
| 1788414962 | 19.44° C | 66% | 1027.4 hPa | - | - | - | - |
| 1788413762 | 19.44° C | 64% | 1027.3 hPa | - | - | - | - |
| 1788412862 | 19.44° C | 65% | 1027.2 hPa | - | - | - | - |
| 1788411362 | 19.44° C | 65% | 1027 hPa | - | - | - | - |
| 1788408362 | 20° C | 64% | 1026.9 hPa | - | - | - | - |
| 1788408062 | 20° C | 63% | 1026.9 hPa | - | - | - | - |
| 1788406862 | 20.56° C | 63% | 1026.9 hPa | - | - | - | - |
| 1788406562 | 20° C | 64% | 1027 hPa | - | - | - | - |
| 1788405962 | 20.56° C | 63% | 1027 hPa | - | - | - | - |
| 1788405062 | 20.56° C | 62% | 1027 hPa | - | - | - | - |
| 1788404162 | 20.56° C | 62% | 1027 hPa | - | - | - | - |
| 1788403562 | 20.56° C | 62% | 1026.9 hPa | - | - | - | - |
| 1788402662 | 20.56° C | 61% | 1026.8 hPa | - | - | - | - |
| 1788402062 | 20.56° C | 62% | 1026.9 hPa | - | - | - | - |
| 1788400561 | 21.11° C | 61% | 1026.9 hPa | - | - | - | - |
| 1788399961 | 21.67° C | 60% | 1026.9 hPa | - | - | - | - |
| 1788399062 | 21.67° C | 59% | 1026.9 hPa | - | - | - | - |
| 1788398462 | 21.67° C | 59% | 1026.9 hPa | - | - | - | - |
| 1788398161 | 21.67° C | 59% | 1026.9 hPa | - | - | - | - |
* Rain since midnight (hover to see other rain measurements)
** Current wind speed in m/s (hover to see current wind gust speed)